Chris — V7XF8 — position and weather

sailwx.info

Track history (hours):
 
Tides and Currents Weather Stations Pressure Air Temp Water Temp Dewpoint Dewpoint Depression Visibility Wind Speed Wind Dir Waves Ship Positions

Chris

Last reported at 2015-Aug-20 06:14 UTC. Time now 2015-Aug-29 09:26 UTC.
Position N 31°10' E 032°18'.
Warning: this ship's position is 9 days out of date.

Length 218 m; draft 12.8 m.

Type: Ship. MMSI: 538004472.

Date/timePositionNaut miles runAvg speedWind from/ knotsBaromVisibWave heightAir tempDewpointWater temp
2015-Aug-20 06:14N 31°10' E 032°18'14 6.9
2015-Aug-20 04:14N 31°23' E 032°22'2 1.3
2015-Aug-20 02:20N 31°23' E 032°20'0 0.0
2015-Aug-19 17:23N 31°23' E 032°20'0 0.0
2015-Aug-19 16:32N 31°23' E 032°19'0 0.0
2015-Aug-19 15:33N 31°23' E 032°20'1 0.7
2015-Aug-19 14:33N 31°23' E 032°19'7 6.9
2015-Aug-19 13:33N 31°29' E 032°15'1111.1
2015-Aug-19 12:33N 31°37' E 032°06'1511.9
2015-Aug-19 11:17N 31°48' E 031°53'1012.4
2015-Aug-19 10:30N 31°54' E 031°45'1213.0
2015-Aug-19 09:33N 32°03' E 031°35'1312.9
2015-Aug-19 08:33N 32°13' E 031°25'1512.9
2015-Aug-19 07:24N 32°24' E 031°13'1112.9
2015-Aug-19 06:33N 32°32' E 031°04'1312.8
2015-Aug-19 05:33N 32°41' E 030°54'8912.7
2015-Aug-18 22:32N 33°48' E 029°43'15713.1
2015-Aug-18 10:33N 35°45' E 027°35'1313.3
2015-Aug-18 09:33N 35°55' E 027°24'3913.1
2015-Aug-18 06:32N 36°24' E 026°51'1313.1
2015-Aug-18 05:33N 36°34' E 026°40'1312.9
2015-Aug-18 04:33N 36°43' E 026°29'612.8
2015-Aug-18 04:03N 36°48' E 026°24'713.0
2015-Aug-18 03:33N 36°53' E 026°18'1312.9
2015-Aug-18 02:33N 37°02' E 026°08'1313.1
2015-Aug-18 01:34N 37°14' E 026°01'1211.8
2015-Aug-18 00:33N 37°24' E 025°53'1312.8
2015-Aug-17 23:33N 37°36' E 025°47'1312.7
2015-Aug-17 22:33N 37°48' E 025°43'  
2015-Aug-13 22:11N 46°34' E 031°14'0 0.0
2015-Aug-13 17:32N 46°34' E 031°15'0 0.0
2015-Aug-13 14:17N 46°34' E 031°14'0 0.0
2015-Aug-13 13:29N 46°34' E 031°14'0 0.0
2015-Aug-13 12:32N 46°34' E 031°14'0 0.0
2015-Aug-12 21:29N 46°34' E 031°15'0 0.0
2015-Aug-12 06:32N 46°34' E 031°14'0 0.0
2015-Aug-12 05:26N 46°34' E 031°14'0 0.0
2015-Aug-12 04:32N 46°34' E 031°14'0 0.1
2015-Aug-12 03:32N 46°34' E 031°14'0 0.0
2015-Aug-12 02:32N 46°34' E 031°14'0 0.0
2015-Aug-12 01:29N 46°34' E 031°14'0 0.0
2015-Aug-12 00:32N 46°34' E 031°14'0 0.0
2015-Aug-11 23:32N 46°34' E 031°14'0 0.0
2015-Aug-11 22:32N 46°34' E 031°14'0 0.0
2015-Aug-11 17:29N 46°34' E 031°14'5 0.5
2015-Aug-11 06:25N 46°34' E 031°07'0 0.0
2015-Aug-11 05:31N 46°34' E 031°07'0 0.0
2015-Aug-11 04:28N 46°34' E 031°07'0 0.0
2015-Aug-11 03:31N 46°34' E 031°07'0 0.0
2015-Aug-11 02:31N 46°34' E 031°07'0 0.0
2015-Aug-11 01:28N 46°34' E 031°07'0 0.0
2015-Aug-11 00:28N 46°34' E 031°07'17 1.5
2015-Aug-10 13:11N 46°35' E 031°32'5 8.5
2015-Aug-10 12:33N 46°36' E 031°39'9 8.5
2015-Aug-10 11:28N 46°37' E 031°52'7 7.8
2015-Aug-10 10:33N 46°44' E 031°56'7 6.9
2015-Aug-10 09:33N 46°51' E 031°57'1 1.3
2015-Aug-10 08:32N 46°51' E 031°59'0 0.0
2015-Aug-10 07:32N 46°51' E 031°59'0 0.0
2015-Aug-10 06:32N 46°51' E 031°59'  
Track history (hours):
 
Tides and Currents Weather Stations Pressure Air Temp Water Temp Dewpoint Dewpoint Depression Visibility Wind Speed Wind Dir Waves Ship Positions

Chris

Last reported at 2015-Aug-20 06:14 UTC. Time now 2015-Aug-29 09:26 UTC.
Position N 31°10' E 032°18'.
Warning: this ship's position is 9 days out of date.

Length 218 m; draft 12.8 m.

Type: Ship. MMSI: 538004472.

Date/timePositionNaut miles runAvg speedWind from/ knotsBaromVisibWave heightAir tempDewpointWater temp
2015-Aug-20 06:14N 31°10' E 032°18'14 6.9
2015-Aug-20 04:14N 31°23' E 032°22'2 1.3
2015-Aug-20 02:20N 31°23' E 032°20'0 0.0
2015-Aug-19 17:23N 31°23' E 032°20'0 0.0
2015-Aug-19 16:32N 31°23' E 032°19'0 0.0
2015-Aug-19 15:33N 31°23' E 032°20'1 0.7
2015-Aug-19 14:33N 31°23' E 032°19'7 6.9
2015-Aug-19 13:33N 31°29' E 032°15'1111.1
2015-Aug-19 12:33N 31°37' E 032°06'1511.9
2015-Aug-19 11:17N 31°48' E 031°53'1012.4
2015-Aug-19 10:30N 31°54' E 031°45'1213.0
2015-Aug-19 09:33N 32°03' E 031°35'1312.9
2015-Aug-19 08:33N 32°13' E 031°25'1512.9
2015-Aug-19 07:24N 32°24' E 031°13'1112.9
2015-Aug-19 06:33N 32°32' E 031°04'1312.8
2015-Aug-19 05:33N 32°41' E 030°54'8912.7
2015-Aug-18 22:32N 33°48' E 029°43'15713.1
2015-Aug-18 10:33N 35°45' E 027°35'1313.3
2015-Aug-18 09:33N 35°55' E 027°24'3913.1
2015-Aug-18 06:32N 36°24' E 026°51'1313.1
2015-Aug-18 05:33N 36°34' E 026°40'1312.9
2015-Aug-18 04:33N 36°43' E 026°29'612.8
2015-Aug-18 04:03N 36°48' E 026°24'713.0
2015-Aug-18 03:33N 36°53' E 026°18'1312.9
2015-Aug-18 02:33N 37°02' E 026°08'1313.1
2015-Aug-18 01:34N 37°14' E 026°01'1211.8
2015-Aug-18 00:33N 37°24' E 025°53'1312.8
2015-Aug-17 23:33N 37°36' E 025°47'1312.7
2015-Aug-17 22:33N 37°48' E 025°43'  
2015-Aug-13 22:11N 46°34' E 031°14'0 0.0
2015-Aug-13 17:32N 46°34' E 031°15'0 0.0
2015-Aug-13 14:17N 46°34' E 031°14'0 0.0
2015-Aug-13 13:29N 46°34' E 031°14'0 0.0
2015-Aug-13 12:32N 46°34' E 031°14'0 0.0
2015-Aug-12 21:29N 46°34' E 031°15'0 0.0
2015-Aug-12 06:32N 46°34' E 031°14'0 0.0
2015-Aug-12 05:26N 46°34' E 031°14'0 0.0
2015-Aug-12 04:32N 46°34' E 031°14'0 0.1
2015-Aug-12 03:32N 46°34' E 031°14'0 0.0
2015-Aug-12 02:32N 46°34' E 031°14'0 0.0
2015-Aug-12 01:29N 46°34' E 031°14'0 0.0
2015-Aug-12 00:32N 46°34' E 031°14'0 0.0
2015-Aug-11 23:32N 46°34' E 031°14'0 0.0
2015-Aug-11 22:32N 46°34' E 031°14'0 0.0
2015-Aug-11 17:29N 46°34' E 031°14'5 0.5
2015-Aug-11 06:25N 46°34' E 031°07'0 0.0
2015-Aug-11 05:31N 46°34' E 031°07'0 0.0
2015-Aug-11 04:28N 46°34' E 031°07'0 0.0
2015-Aug-11 03:31N 46°34' E 031°07'0 0.0
2015-Aug-11 02:31N 46°34' E 031°07'0 0.0
2015-Aug-11 01:28N 46°34' E 031°07'0 0.0
2015-Aug-11 00:28N 46°34' E 031°07'17 1.5
2015-Aug-10 13:11N 46°35' E 031°32'5 8.5
2015-Aug-10 12:33N 46°36' E 031°39'9 8.5
2015-Aug-10 11:28N 46°37' E 031°52'7 7.8
2015-Aug-10 10:33N 46°44' E 031°56'7 6.9
2015-Aug-10 09:33N 46°51' E 031°57'1 1.3
2015-Aug-10 08:32N 46°51' E 031°59'0 0.0
2015-Aug-10 07:32N 46°51' E 031°59'0 0.0
2015-Aug-10 06:32N 46°51' E 031°59'  

Dump ship's entire track history